Stations météo

réclame
Mon MeteoGroup
Gielas, Suède (2110): Température de l'air & dewpoint: 16.10.2018 16:00:00 - 22.10.2018 16:00:00 (CEST)Gielas, Suède (2110): Vitesse du vent & gusts: 16.10.2018 16:00:00 - 22.10.2018 16:00:00 (CEST)Gielas, Suède (2110): Direction du vent: 16.10.2018 16:00:00 - 22.10.2018 16:00:00 (CEST)Gielas, Suède (2110): visibility: 16.10.2018 16:00:00 - 22.10.2018 16:00:00 (CEST)Gielas, Suède (2110): Quantités de précipitations: 16.10.2018 16:00:00 - 22.10.2018 16:00:00 (CEST)
Date & Time tt [°C] td [°C] ff [km/h] ff [knt] fx [km/h] fx [knt] dd vv [km] rr [mm]
22.10.2018 16:00:00 0,1 -0,3 9 5 27 15 WSW 7 0,4
22.10.2018 15:00:00 0,3 -0,3 9 5 25 13 W 2,6 0,6
22.10.2018 14:00:00 0,1 -0,3 5 3 23 13 WSW 0,8 0,5
22.10.2018 13:00:00 0,0 -1,1 10 5 25 13 W 15 0,0
22.10.2018 12:00:00 0,1 -0,5 10 6 34 19 WSW 3,3 0,7
22.10.2018 11:00:00 -0,1 -0,4 15 8 34 18 WSW 0,5 0,8
22.10.2018 10:00:00 0,3 -0,7 8 4 44 24 WSW 17 0,1
22.10.2018 09:00:00 -0,4 -1,1 16 9 51 28 WSW 2,7 0,1
22.10.2018 08:00:00 -0,3 -0,6 18 10 42 23 WSW 1,8 0,5
22.10.2018 07:00:00 0,1 -1,0 14 8 37 20 SW 47 0,3
22.10.2018 06:00:00 0,1 0,0 8 4 25 14 SSW 0,8 0,8
22.10.2018 05:00:00 0,6 -2,6 10 5 22 12 SSW 23 0,0
22.10.2018 04:00:00 -2,2 -3,2 5 3 10 6 ENE 23 0,0
22.10.2018 03:00:00 -0,6 -1,7 4 2 21 11 SSE 29 0,0
22.10.2018 02:00:00 -1,5 -2,2 4 2 26 14 NE 20 0,0
22.10.2018 01:00:00 0,5 -0,5 10 5 41 22 W 46 0,2
22.10.2018 00:00:00 1,3 -1,6 9 5 21 11 WSW 19 0,0
21.10.2018 23:00:00 1,7 -1,4 9 5 23 12 WSW 19 0,0
21.10.2018 22:00:00 1,6 -0,5 10 6 30 16 WSW 36 0,0
21.10.2018 21:00:00 2,2 1,0 8 5 20 11 WNW 43 0,0
21.10.2018 20:00:00 2,5 1,0 6 4 17 9 SW 33 0,0
21.10.2018 19:00:00 2,9 1,0 9 5 24 13 W 42 0,0
21.10.2018 18:00:00 3,3 0,9 12 7 30 16 WSW 31 0,0
21.10.2018 17:00:00 2,6 1,7 10 5 22 12 W 50 0,0
21.10.2018 16:00:00 3,1 2,4 12 6 44 24 W 10 1,1
21.10.2018 15:00:00 5,6 2,1 21 12 49 26 WSW 18 0,0
21.10.2018 14:00:00 5,1 2,5 22 12 55 30 SW 37 0,3
21.10.2018 13:00:00 5,1 1,8 22 12 51 27 WSW 14 0,0
21.10.2018 12:00:00 5,6 1,9 23 13 58 32 WSW 23 0,1
21.10.2018 11:00:00 6,4 0,9 24 13 61 33 WSW 21 0,0
21.10.2018 10:00:00 5,8 0,8 20 11 59 32 WSW 25 0,0
21.10.2018 09:00:00 5,8 0,4 25 13 56 31 W 25 0,0
21.10.2018 08:00:00 6,1 1,4 23 13 58 31 W 50 0,0
21.10.2018 07:00:00 5,5 3,7 11 6 33 18 SW 50 0,0
21.10.2018 06:00:00 4,7 3,4 5 3 29 15 SW 50 0,0
21.10.2018 05:00:00 3,9 3,0 8 4 30 16 SSW 19 0,4
21.10.2018 04:00:00 3,6 2,3 14 8 37 20 SSW 13 0,3
21.10.2018 03:00:00 3,6 2,0 17 9 35 19 SW 31 0,3
21.10.2018 02:00:00 3,3 1,7 6 4 50 27 WSW 50 0,1
21.10.2018 01:00:00 4,2 1,1 22 12 51 27 SSW 13 0,0
21.10.2018 00:00:00 4,6 0,7 13 7 40 21 SSW 50 0,0
20.10.2018 23:00:00 4,4 1,6 15 8 30 16 SSW 46 0,0
20.10.2018 22:00:00 4,1 2,1 13 7 27 15 SSW 50 0,0
20.10.2018 21:00:00 4,1 1,8 9 5 19 11 SW 50 0,0
20.10.2018 20:00:00 4,2 1,4 9 5 21 11 SSW 50 0,0
20.10.2018 19:00:00 3,9 1,4 7 4 20 11 SSW 50 0,0
20.10.2018 18:00:00 3,7 1,2 8 4 21 11 SW 50 0,0
20.10.2018 17:00:00 4,7 1,2 10 5 23 13 SW 50 0,0
20.10.2018 16:00:00 5,3 1,0 6 4 22 12 SW 50 0,0
20.10.2018 15:00:00 5,5 0,7 10 5 24 13 WSW 50 0,0
20.10.2018 14:00:00 6,3 1,6 11 6 21 11 W 50 0,0
20.10.2018 13:00:00 5,9 2,2 9 5 21 11 WSW 45 0,0
20.10.2018 12:00:00 4,5 3,5 4 2 18 10 W 48 0,0
20.10.2018 11:00:00 3,8 2,8 7 4 18 10 SW 50 0,0
20.10.2018 10:00:00 1,7 1,7 4 2 8 5 W 24 0,0
20.10.2018 09:00:00 0,9 0,9 4 2 8 4 W 50 0,0
20.10.2018 08:00:00 0,8 0,8 2 1 4 2 W 44 0,0
20.10.2018 07:00:00 1,2 1,2 3 1 8 5 WNW 50 0,0
20.10.2018 06:00:00 1,5 1,5 3 2 5 3 NW 49 0,0
20.10.2018 05:00:00 1,4 1,4 3 1 5 3 S 15 0,2
20.10.2018 04:00:00 1,3 1,2 1 1 6 3 ENE 20 0,1
20.10.2018 03:00:00 1,4 1,3 2 1 7 4 NW 44 0,0
20.10.2018 02:00:00 1,6 1,3 5 3 7 4 WSW 42 0,1
20.10.2018 01:00:00 2,3 1,9 2 1 8 4 S 32 0,0
20.10.2018 00:00:00 1,4 1,1 5 3 9 5 W 50 0,0
19.10.2018 23:00:00 2,0 1,7 4 2 13 7 W 43 0,0
19.10.2018 22:00:00 1,5 1,2 4 2 13 7 NW 50 0,0
19.10.2018 21:00:00 2,4 1,7 5 3 9 5 W 26 0,0
19.10.2018 20:00:00 3,1 1,9 2 1 9 5 WSW 50 0,0
19.10.2018 19:00:00 2,5 1,5 3 2 6 3 W 49 0,0
19.10.2018 18:00:00 3,1 1,5 3 1 4 2 SSE 50 0,0
19.10.2018 17:00:00 3,9 1,4 1 1 14 8 SE 50 0,0
19.10.2018 16:00:00 4,4 1,8 8 4 22 12 WSW 50 0,0
19.10.2018 15:00:00 4,3 1,2 6 4 16 9 WSW 50 0,0
19.10.2018 14:00:00 4,7 0,3 6 4 16 9 W 49 0,0
19.10.2018 13:00:00 3,9 0,2 9 5 25 13 W 43 0,0
19.10.2018 12:00:00 3,9 -0,5 6 3 16 8 WSW 50 0,0
19.10.2018 11:00:00 3,6 -0,6 11 6 25 14 W 47 0,0
19.10.2018 10:00:00 3,0 0,2 11 6 22 12 W 48 0,0
19.10.2018 09:00:00 2,2 0,7 6 3 23 13 WSW 50 0,1
19.10.2018 08:00:00 2,5 1,6 8 4 24 13 W 34 0,0
19.10.2018 07:00:00 2,7 1,8 13 7 31 17 W 12 0,3
19.10.2018 06:00:00 2,8 2,4 8 4 15 8 W 10 0,2
19.10.2018 05:00:00 3,3 1,8 5 3 32 18 SSW 14 0,0
19.10.2018 04:00:00 3,8 1,2 16 9 36 19 W 49 0,0
19.10.2018 03:00:00 4,0 1,2 12 7 34 18 W 31 0,0
19.10.2018 02:00:00 4,2 0,7 17 9 46 25 W 50 0,0
19.10.2018 01:00:00 4,1 0,6 20 11 40 22 W 50 0,0
19.10.2018 00:00:00 4,0 0,5 13 7 32 17 WSW 50 0,0
18.10.2018 23:00:00 3,8 0,5 11 6 35 19 W 50 0,0
18.10.2018 22:00:00 3,9 0,4 15 8 40 21 WSW 50 0,0
18.10.2018 21:00:00 4,1 0,3 15 8 44 24 WSW 50 0,0
18.10.2018 20:00:00 4,1 0,1 19 10 53 28 SW 50 0,0
18.10.2018 19:00:00 4,0 0,2 22 12 50 27 WSW 50 0,0
18.10.2018 18:00:00 3,9 0,2 21 12 56 30 W 50 0,0
18.10.2018 17:00:00 4,1 0,6 23 13 52 28 WSW 50 0,0
18.10.2018 16:00:00 4,4 0,9 26 14 49 26 W 45 0,0
18.10.2018 15:00:00 3,9 1,1 16 9 38 21 SW 31 0,0
18.10.2018 14:00:00 3,5 1,4 16 9 40 21 SW 21 0,0
18.10.2018 13:00:00 3,8 0,8 19 11 40 21 SW 37 0,0
18.10.2018 12:00:00 4,1 0,6 14 8 37 20 SW 50 0,0
18.10.2018 11:00:00 4,3 0,6 10 6 35 19 SSW 42 0,0
18.10.2018 10:00:00 3,7 -0,3 14 8 35 19 WSW 50 0,0
18.10.2018 09:00:00 2,6 0,3 10 5 22 12 SW 50 0,0
18.10.2018 08:00:00 2,6 0,7 9 5 23 13 SSW 50 0,0
18.10.2018 07:00:00 2,7 0,8 11 6 26 14 SSW 50 0,0
18.10.2018 06:00:00 2,7 0,8 9 5 22 12 WSW 50 0,0
18.10.2018 05:00:00 0,2 -0,5 4 2 12 7 W 40 0,0
18.10.2018 04:00:00 1,4 0,2 5 3 18 10 WSW 50 0,0
18.10.2018 03:00:00 3,0 2,0 10 6 26 14 WSW 9 0,1
18.10.2018 02:00:00 2,7 0,8 3 2 11 6 N 41 0,0
18.10.2018 01:00:00 1,4 -0,1 6 4 11 6 NNW 36 0,0
18.10.2018 00:00:00 4,4 0,7 8 4 31 17 WSW 44 0,0
17.10.2018 23:00:00 5,5 1,2 16 8 35 19 WSW 50 0,0
17.10.2018 22:00:00 5,4 2,9 11 6 29 16 SW 23 0,0
17.10.2018 21:00:00 5,6 3,8 12 6 27 14 SW 50 0,0
17.10.2018 20:00:00 5,0 4,3 9 5 17 9 SW 50 0,1
17.10.2018 19:00:00 3,7 3,6 6 4 10 5 WSW 44 0,0
17.10.2018 18:00:00 4,3 3,9 - - - - - 50 0,1
17.10.2018 17:00:00 5,1 3,4 2 1 5 3 NW 18 0,2
17.10.2018 16:00:00 5,2 3,4 3 2 11 6 ESE 50 0,0
17.10.2018 15:00:00 5,2 3,4 3 1 - - ENE 50 0,0
17.10.2018 14:00:00 5,7 3,0 5 3 13 7 SSW 50 0,0
17.10.2018 13:00:00 4,5 3,8 1 1 8 4 WNW 13 0,2
17.10.2018 12:00:00 4,3 2,8 3 2 16 8 WSW 22 0,0
17.10.2018 11:00:00 4,1 2,3 7 4 16 9 SSW 50 0,0
17.10.2018 10:00:00 3,4 1,9 5 3 11 6 SW 50 0,0
17.10.2018 09:00:00 3,3 2,0 5 3 16 8 SSW 25 0,0
17.10.2018 08:00:00 3,2 1,2 - - - - - 50 0,0
17.10.2018 07:00:00 3,5 1,4 3 2 18 10 SSW 50 0,0
17.10.2018 06:00:00 4,0 1,5 4 2 18 10 WSW 50 0,0
17.10.2018 05:00:00 3,3 1,2 3 2 12 6 W 50 0,0
17.10.2018 04:00:00 3,9 1,3 3 2 13 7 NW 50 0,0
17.10.2018 03:00:00 4,3 1,3 5 3 22 12 SSE 50 0,0
17.10.2018 02:00:00 4,6 0,9 8 5 21 11 S 50 0,0
17.10.2018 01:00:00 3,8 0,7 3 2 16 9 W 50 0,0
17.10.2018 00:00:00 4,6 0,9 7 4 28 15 S 50 0,0
16.10.2018 23:00:00 4,9 0,7 13 7 41 22 S 50 0,0
16.10.2018 22:00:00 4,6 0,9 6 3 14 8 E 50 0,0
16.10.2018 21:00:00 3,9 1,8 5 3 9 5 NNE 50 0,0
16.10.2018 20:00:00 3,2 1,1 4 2 12 6 ENE 50 0,0
16.10.2018 19:00:00 4,1 1,8 4 2 18 10 S 50 0,0
16.10.2018 18:00:00 4,1 1,5 6 4 17 9 S 50 0,0
16.10.2018 17:00:00 4,4 1,1 7 4 25 13 SSW 50 0,0
16.10.2018 16:00:00 5,4 0,6 9 5 18 10 SW 50 0,0

tt = Température de l'air
td = dewpoint
ff = Vitesse du vent
fx = gusts
dd = Direction du vent
vv = visibility
rr = Quantités de précipitations

stations d'obs. à proximité